Terminal Aerodrome Forecast
Issued by NWS

Home | Current Version | Previous Version | Text Only | Print | Product List | Glossary On
Versions: 1 2 3 4 5 6 7 8 9 10 11 12 13 14 15 16 17 18 19 20 21 22 23 24 25 26 27 28 29 30 31 32 33 34 35 36
000
FTUS41 KBTV 110524
TAFPBG
TAF
KPBG 110524Z 1106/1206 00000KT 4SM BR FEW004
      TEMPO 1106/1110 1SM BR OVC004
     FM111100 00000KT P6SM FEW040 SCT250
     FM111600 15010KT P6SM VCSH FEW060 SCT200
     FM120100 00000KT P6SM VCSH SCT120=

USA.gov is the U.S. government's official web portal to all federal, state and local government web resources and services.